Glabbeek-Zuurbemde, Belgium
Current Conditions -  °F | °C
As of 6:25 AM on Thursday 23 Oct 2014 (Local Time) from EBDT Reporting Station
Broken Clouds Broken Clouds  
Wind Chill: 44°   Ceiling: 21000
Heat Index: 46°   Visibility: 6mi
Dew Point: 43°   Wind: 6mph
Humidity: 87%   Direction: 230°SW
Pressure: 30.21"   Gusts: NA
Location:  50.87°N, 4.94°E
Report Text: EBDT 230425Z 23005KT 9000 FEW060 SCT120 BKN210 08/06 Q1023 BLU BLU
Loading
Personal Weather Stations






























Interactive Weather Map
Tropical Storm Tracking
New forecast layout! Learn more

10-Day Weather Forecast

Advertisements
Track Severe Weather on mobile